sensor_id;sensor_type;location;lat;lon;timestamp;pressure;altitude;pressure_sealevel;temperature;humidity
75996;BME280;64681;49.738;9.004;2024-02-21T00:00:45;100433.78;;;8.55;77.80
75996;BME280;64681;49.738;9.004;2024-02-21T00:03:10;100421.09;;;8.28;79.05
75996;BME280;64681;49.738;9.004;2024-02-21T00:05:36;100421.59;;;8.30;79.29
75996;BME280;64681;49.738;9.004;2024-02-21T00:08:02;100420.44;;;7.98;80.21
75996;BME280;64681;49.738;9.004;2024-02-21T00:10:28;100426.97;;;7.87;80.40
75996;BME280;64681;49.738;9.004;2024-02-21T00:12:54;100418.44;;;8.09;79.53
75996;BME280;64681;49.738;9.004;2024-02-21T00:15:19;100417.72;;;8.22;79.22
75996;BME280;64681;49.738;9.004;2024-02-21T00:17:45;100405.94;;;8.29;79.06
75996;BME280;64681;49.738;9.004;2024-02-21T00:20:10;100399.16;;;8.36;79.32
75996;BME280;64681;49.738;9.004;2024-02-21T00:22:36;100400.47;;;8.39;78.29
75996;BME280;64681;49.738;9.004;2024-02-21T00:25:02;100395.56;;;8.46;78.61
75996;BME280;64681;49.738;9.004;2024-02-21T00:27:28;100395.16;;;8.39;78.22
75996;BME280;64681;49.738;9.004;2024-02-21T00:29:53;100392.75;;;8.37;79.11
75996;BME280;64681;49.738;9.004;2024-02-21T00:32:19;100385.94;;;8.12;79.33
75996;BME280;64681;49.738;9.004;2024-02-21T00:34:44;100380.53;;;8.55;78.23
75996;BME280;64681;49.738;9.004;2024-02-21T00:37:09;100388.66;;;8.45;78.40
75996;BME280;64681;49.738;9.004;2024-02-21T00:39:35;100390.31;;;8.60;78.20
75996;BME280;64681;49.738;9.004;2024-02-21T00:42:01;100385.50;;;8.62;77.02
75996;BME280;64681;49.738;9.004;2024-02-21T00:44:26;100386.56;;;8.42;77.96
75996;BME280;64681;49.738;9.004;2024-02-21T00:46:52;100383.19;;;8.36;78.49
75996;BME280;64681;49.738;9.004;2024-02-21T00:49:18;100373.88;;;8.58;77.50
75996;BME280;64681;49.738;9.004;2024-02-21T00:51:43;100373.16;;;8.52;77.80
75996;BME280;64681;49.738;9.004;2024-02-21T00:54:08;100368.34;;;8.68;77.64
75996;BME280;64681;49.738;9.004;2024-02-21T00:56:34;100365.06;;;8.58;77.53
75996;BME280;64681;49.738;9.004;2024-02-21T00:58:59;100358.50;;;8.69;76.42
75996;BME280;64681;49.738;9.004;2024-02-21T01:01:25;100353.88;;;8.75;76.33
75996;BME280;64681;49.738;9.004;2024-02-21T01:03:50;100342.06;;;8.81;76.75
75996;BME280;64681;49.738;9.004;2024-02-21T01:06:19;100325.25;;;8.52;77.38
75996;BME280;64681;49.738;9.004;2024-02-21T01:08:46;100324.47;;;8.66;77.17
75996;BME280;64681;49.738;9.004;2024-02-21T01:11:12;100313.72;;;8.57;77.14
75996;BME280;64681;49.738;9.004;2024-02-21T01:13:37;100307.47;;;8.48;76.63
75996;BME280;64681;49.738;9.004;2024-02-21T01:16:03;100306.59;;;8.52;76.41
75996;BME280;64681;49.738;9.004;2024-02-21T01:18:28;100300.00;;;8.50;77.46
75996;BME280;64681;49.738;9.004;2024-02-21T01:20:54;100286.03;;;8.58;76.37
75996;BME280;64681;49.738;9.004;2024-02-21T01:23:19;100294.47;;;8.60;76.27
75996;BME280;64681;49.738;9.004;2024-02-21T01:25:44;100284.53;;;8.66;75.66
75996;BME280;64681;49.738;9.004;2024-02-21T01:28:10;100298.81;;;8.56;77.02
75996;BME280;64681;49.738;9.004;2024-02-21T01:30:35;100295.66;;;8.35;77.30
75996;BME280;64681;49.738;9.004;2024-02-21T01:33:01;100291.88;;;8.22;78.67
75996;BME280;64681;49.738;9.004;2024-02-21T01:35:26;100294.94;;;8.48;76.92
75996;BME280;64681;49.738;9.004;2024-02-21T01:37:52;100287.59;;;8.40;77.67
75996;BME280;64681;49.738;9.004;2024-02-21T01:40:17;100294.50;;;8.08;78.70
75996;BME280;64681;49.738;9.004;2024-02-21T01:42:42;100289.47;;;8.39;77.74
75996;BME280;64681;49.738;9.004;2024-02-21T01:45:08;100286.75;;;8.26;78.36
75996;BME280;64681;49.738;9.004;2024-02-21T01:47:34;100292.50;;;8.00;79.31
75996;BME280;64681;49.738;9.004;2024-02-21T01:50:01;100299.81;;;8.27;77.47
75996;BME280;64681;49.738;9.004;2024-02-21T01:52:29;100302.06;;;8.34;77.79
75996;BME280;64681;49.738;9.004;2024-02-21T01:54:57;100294.69;;;8.31;78.02
75996;BME280;64681;49.738;9.004;2024-02-21T01:57:23;100295.16;;;8.52;76.92
75996;BME280;64681;49.738;9.004;2024-02-21T01:59:49;100287.84;;;8.24;78.39
75996;BME280;64681;49.738;9.004;2024-02-21T02:02:16;100294.72;;;8.12;79.89
75996;BME280;64681;49.738;9.004;2024-02-21T02:04:43;100284.66;;;8.08;79.73
75996;BME280;64681;49.738;9.004;2024-02-21T02:07:09;100274.44;;;7.97;80.19
75996;BME280;64681;49.738;9.004;2024-02-21T02:09:34;100274.81;;;7.90;80.72
75996;BME280;64681;49.738;9.004;2024-02-21T02:12:00;100280.41;;;7.88;81.03
75996;BME280;64681;49.738;9.004;2024-02-21T02:14:26;100278.78;;;7.92;80.57
75996;BME280;64681;49.738;9.004;2024-02-21T02:16:51;100280.47;;;8.21;78.99
75996;BME280;64681;49.738;9.004;2024-02-21T02:19:17;100273.66;;;8.29;79.01
75996;BME280;64681;49.738;9.004;2024-02-21T02:21:46;100272.28;;;8.18;79.83
75996;BME280;64681;49.738;9.004;2024-02-21T02:24:19;100280.97;;;8.23;79.36
75996;BME280;64681;49.738;9.004;2024-02-21T02:26:45;100270.19;;;8.15;79.57
75996;BME280;64681;49.738;9.004;2024-02-21T02:29:11;100270.69;;;8.17;79.95
75996;BME280;64681;49.738;9.004;2024-02-21T02:31:36;100258.81;;;8.09;80.88
75996;BME280;64681;49.738;9.004;2024-02-21T02:34:03;100259.78;;;7.99;81.52
75996;BME280;64681;49.738;9.004;2024-02-21T02:36:32;100248.28;;;8.04;81.50
75996;BME280;64681;49.738;9.004;2024-02-21T02:38:58;100249.50;;;8.12;80.87
75996;BME280;64681;49.738;9.004;2024-02-21T02:41:23;100245.09;;;8.02;80.73
75996;BME280;64681;49.738;9.004;2024-02-21T02:43:49;100253.25;;;7.91;81.74
75996;BME280;64681;49.738;9.004;2024-02-21T02:46:14;100248.13;;;8.28;79.32
75996;BME280;64681;49.738;9.004;2024-02-21T02:48:39;100235.94;;;8.27;79.63
75996;BME280;64681;49.738;9.004;2024-02-21T02:51:05;100236.72;;;8.28;80.13
75996;BME280;64681;49.738;9.004;2024-02-21T02:53:30;100240.38;;;8.32;79.02
75996;BME280;64681;49.738;9.004;2024-02-21T02:55:56;100246.41;;;8.37;79.02
75996;BME280;64681;49.738;9.004;2024-02-21T02:58:21;100247.88;;;8.30;79.79
75996;BME280;64681;49.738;9.004;2024-02-21T03:00:46;100249.09;;;8.18;80.17
75996;BME280;64681;49.738;9.004;2024-02-21T03:03:12;100244.41;;;7.96;81.28
75996;BME280;64681;49.738;9.004;2024-02-21T03:05:37;100230.13;;;7.73;82.65
75996;BME280;64681;49.738;9.004;2024-02-21T03:08:03;100224.81;;;7.54;84.70
75996;BME280;64681;49.738;9.004;2024-02-21T03:10:32;100216.75;;;7.40;85.06
75996;BME280;64681;49.738;9.004;2024-02-21T03:12:58;100211.22;;;7.55;84.42
75996;BME280;64681;49.738;9.004;2024-02-21T03:15:24;100205.13;;;7.55;84.17
75996;BME280;64681;49.738;9.004;2024-02-21T03:17:49;100208.56;;;7.36;85.18
75996;BME280;64681;49.738;9.004;2024-02-21T03:20:14;100210.34;;;7.79;82.99
75996;BME280;64681;49.738;9.004;2024-02-21T03:22:40;100199.06;;;7.87;81.54
75996;BME280;64681;49.738;9.004;2024-02-21T03:25:06;100204.25;;;7.79;81.80
75996;BME280;64681;49.738;9.004;2024-02-21T03:27:32;100211.94;;;7.80;82.19
75996;BME280;64681;49.738;9.004;2024-02-21T03:29:57;100200.81;;;7.59;83.06
75996;BME280;64681;49.738;9.004;2024-02-21T03:32:22;100213.63;;;7.57;83.32
75996;BME280;64681;49.738;9.004;2024-02-21T03:34:48;100212.47;;;7.63;83.12
75996;BME280;64681;49.738;9.004;2024-02-21T03:37:13;100202.34;;;7.65;83.00
75996;BME280;64681;49.738;9.004;2024-02-21T03:39:39;100200.81;;;7.59;83.07
75996;BME280;64681;49.738;9.004;2024-02-21T03:42:05;100197.91;;;7.41;84.36
75996;BME280;64681;49.738;9.004;2024-02-21T03:44:31;100187.72;;;7.05;86.42
75996;BME280;64681;49.738;9.004;2024-02-21T03:46:57;100180.91;;;6.99;86.41
75996;BME280;64681;49.738;9.004;2024-02-21T03:49:22;100182.50;;;7.00;85.78
75996;BME280;64681;49.738;9.004;2024-02-21T03:51:48;100183.56;;;6.99;85.57
75996;BME280;64681;49.738;9.004;2024-02-21T03:54:13;100182.56;;;6.71;87.16
75996;BME280;64681;49.738;9.004;2024-02-21T03:56:39;100187.88;;;6.71;87.48
75996;BME280;64681;49.738;9.004;2024-02-21T03:59:06;100171.22;;;6.65;87.66
75996;BME280;64681;49.738;9.004;2024-02-21T04:01:31;100164.81;;;6.47;88.63
75996;BME280;64681;49.738;9.004;2024-02-21T04:03:57;100161.13;;;6.43;88.38
75996;BME280;64681;49.738;9.004;2024-02-21T04:06:22;100165.50;;;6.28;88.91
75996;BME280;64681;49.738;9.004;2024-02-21T04:08:50;100181.97;;;6.25;89.05
75996;BME280;64681;49.738;9.004;2024-02-21T04:11:16;100193.19;;;6.17;89.48
75996;BME280;64681;49.738;9.004;2024-02-21T04:13:42;100189.97;;;6.20;90.16
75996;BME280;64681;49.738;9.004;2024-02-21T04:16:08;100194.81;;;5.78;93.50
75996;BME280;64681;49.738;9.004;2024-02-21T04:18:33;100190.03;;;5.80;94.14
75996;BME280;64681;49.738;9.004;2024-02-21T04:20:59;100190.44;;;5.93;95.74
75996;BME280;64681;49.738;9.004;2024-02-21T04:23:24;100178.53;;;6.25;92.21
75996;BME280;64681;49.738;9.004;2024-02-21T04:25:50;100190.81;;;6.15;92.74
75996;BME280;64681;49.738;9.004;2024-02-21T04:28:18;100191.19;;;5.98;93.87
75996;BME280;64681;49.738;9.004;2024-02-21T04:30:43;100169.31;;;6.17;92.40
75996;BME280;64681;49.738;9.004;2024-02-21T04:33:09;100172.03;;;6.36;91.54
75996;BME280;64681;49.738;9.004;2024-02-21T04:35:36;100164.81;;;6.47;90.92
75996;BME280;64681;49.738;9.004;2024-02-21T04:38:01;100173.53;;;6.47;90.78
75996;BME280;64681;49.738;9.004;2024-02-21T04:40:27;100157.47;;;6.39;91.62
75996;BME280;64681;49.738;9.004;2024-02-21T04:42:52;100158.84;;;6.55;89.85
75996;BME280;64681;49.738;9.004;2024-02-21T04:45:18;100158.63;;;6.27;91.38
75996;BME280;64681;49.738;9.004;2024-02-21T04:47:43;100171.19;;;6.46;90.21
75996;BME280;64681;49.738;9.004;2024-02-21T04:50:09;100161.06;;;6.48;89.90
75996;BME280;64681;49.738;9.004;2024-02-21T04:52:35;100159.69;;;5.97;93.38
75996;BME280;64681;49.738;9.004;2024-02-21T04:55:00;100151.66;;;6.07;91.26
75996;BME280;64681;49.738;9.004;2024-02-21T04:57:26;100144.28;;;5.99;91.83
75996;BME280;64681;49.738;9.004;2024-02-21T04:59:51;100125.78;;;5.94;91.23
75996;BME280;64681;49.738;9.004;2024-02-21T05:02:16;100144.31;;;5.94;90.43
75996;BME280;64681;49.738;9.004;2024-02-21T05:04:43;100127.53;;;5.74;91.37
75996;BME280;64681;49.738;9.004;2024-02-21T05:07:09;100131.09;;;5.59;93.06
75996;BME280;64681;49.738;9.004;2024-02-21T05:09:36;100125.03;;;5.53;92.12
75996;BME280;64681;49.738;9.004;2024-02-21T05:12:01;100119.25;;;5.46;92.63
75996;BME280;64681;49.738;9.004;2024-02-21T05:14:27;100103.94;;;5.38;92.72
75996;BME280;64681;49.738;9.004;2024-02-21T05:16:53;100103.72;;;5.34;93.08
75996;BME280;64681;49.738;9.004;2024-02-21T05:19:18;100105.06;;;5.32;93.65
75996;BME280;64681;49.738;9.004;2024-02-21T05:21:45;100095.34;;;5.22;94.59
75996;BME280;64681;49.738;9.004;2024-02-21T05:24:10;100076.84;;;5.12;94.39
75996;BME280;64681;49.738;9.004;2024-02-21T05:26:35;100081.38;;;5.06;94.72
75996;BME280;64681;49.738;9.004;2024-02-21T05:29:01;100068.69;;;5.08;94.20
75996;BME280;64681;49.738;9.004;2024-02-21T05:31:55;100077.28;;;4.84;97.24
75996;BME280;64681;49.738;9.004;2024-02-21T05:34:24;100077.09;;;5.20;95.78
75996;BME280;64681;49.738;9.004;2024-02-21T05:37:05;100073.09;;;5.18;96.64
75996;BME280;64681;49.738;9.004;2024-02-21T05:39:37;100084.25;;;5.15;97.11
75996;BME280;64681;49.738;9.004;2024-02-21T05:42:03;100086.94;;;5.10;98.33
75996;BME280;64681;49.738;9.004;2024-02-21T05:44:28;100084.03;;;5.06;99.50
75996;BME280;64681;49.738;9.004;2024-02-21T05:46:54;100087.63;;;5.26;97.26
75996;BME280;64681;49.738;9.004;2024-02-21T05:49:20;100097.94;;;5.32;97.04
75996;BME280;64681;49.738;9.004;2024-02-21T05:51:45;100087.44;;;5.17;96.63
75996;BME280;64681;49.738;9.004;2024-02-21T05:54:11;100090.63;;;5.14;96.50
75996;BME280;64681;49.738;9.004;2024-02-21T05:56:36;100096.94;;;5.18;95.64
75996;BME280;64681;49.738;9.004;2024-02-21T05:59:01;100095.09;;;5.18;96.67
75996;BME280;64681;49.738;9.004;2024-02-21T06:01:27;100092.88;;;5.31;95.95
75996;BME280;64681;49.738;9.004;2024-02-21T06:03:53;100091.53;;;5.33;95.37
75996;BME280;64681;49.738;9.004;2024-02-21T06:06:18;100101.41;;;5.22;95.20
75996;BME280;64681;49.738;9.004;2024-02-21T06:08:43;100090.03;;;5.22;95.61
75996;BME280;64681;49.738;9.004;2024-02-21T06:11:11;100075.75;;;5.18;95.98
75996;BME280;64681;49.738;9.004;2024-02-21T06:14:39;100083.47;;;5.14;97.18
75996;BME280;64681;49.738;9.004;2024-02-21T06:17:44;100060.16;;;5.16;96.26
75996;BME280;64681;49.738;9.004;2024-02-21T06:20:09;100072.53;;;5.26;95.54
75996;BME280;64681;49.738;9.004;2024-02-21T06:22:35;100077.28;;;5.29;95.31
75996;BME280;64681;49.738;9.004;2024-02-21T06:25:00;100070.22;;;5.14;95.19
75996;BME280;64681;49.738;9.004;2024-02-21T06:27:27;100073.44;;;5.06;95.75
75996;BME280;64681;49.738;9.004;2024-02-21T06:29:53;100081.81;;;4.84;97.94
75996;BME280;64681;49.738;9.004;2024-02-21T06:32:18;100065.56;;;5.01;95.65
75996;BME280;64681;49.738;9.004;2024-02-21T06:34:43;100064.59;;;4.86;96.84
75996;BME280;64681;49.738;9.004;2024-02-21T06:37:09;100053.38;;;5.05;95.71
75996;BME280;64681;49.738;9.004;2024-02-21T06:39:34;100073.44;;;5.11;95.18
75996;BME280;64681;49.738;9.004;2024-02-21T06:42:02;100073.53;;;4.96;97.05
75996;BME280;64681;49.738;9.004;2024-02-21T06:44:28;100072.28;;;5.22;96.59
75996;BME280;64681;49.738;9.004;2024-02-21T06:46:53;100083.59;;;5.33;97.21
75996;BME280;64681;49.738;9.004;2024-02-21T06:49:19;100074.88;;;5.33;96.61
75996;BME280;64681;49.738;9.004;2024-02-21T06:51:45;100072.06;;;5.83;96.47
75996;BME280;64681;49.738;9.004;2024-02-21T06:54:10;100062.97;;;6.18;93.70
75996;BME280;64681;49.738;9.004;2024-02-21T06:56:37;100063.63;;;6.54;90.74
75996;BME280;64681;49.738;9.004;2024-02-21T06:59:03;100062.03;;;6.53;90.39
75996;BME280;64681;49.738;9.004;2024-02-21T07:01:29;100068.72;;;6.50;91.02
75996;BME280;64681;49.738;9.004;2024-02-21T07:03:55;100057.13;;;6.65;90.66
75996;BME280;64681;49.738;9.004;2024-02-21T07:06:20;100048.66;;;6.63;89.06
75996;BME280;64681;49.738;9.004;2024-02-21T07:08:45;100067.38;;;6.28;91.64
75996;BME280;64681;49.738;9.004;2024-02-21T07:11:11;100056.94;;;6.56;90.79
75996;BME280;64681;49.738;9.004;2024-02-21T07:13:36;100037.91;;;6.54;89.94
75996;BME280;64681;49.738;9.004;2024-02-21T07:16:02;100045.88;;;6.73;89.59
75996;BME280;64681;49.738;9.004;2024-02-21T07:18:27;100048.66;;;6.63;89.86
75996;BME280;64681;49.738;9.004;2024-02-21T07:20:53;100050.59;;;6.95;88.49
75996;BME280;64681;49.738;9.004;2024-02-21T07:23:18;100050.88;;;7.13;86.95
75996;BME280;64681;49.738;9.004;2024-02-21T07:25:44;100045.97;;;7.20;86.07
75996;BME280;64681;49.738;9.004;2024-02-21T07:28:10;100038.56;;;7.17;85.37
75996;BME280;64681;49.738;9.004;2024-02-21T07:30:35;100031.28;;;7.42;84.55
75996;BME280;64681;49.738;9.004;2024-02-21T07:33:01;100037.88;;;7.44;84.92
75996;BME280;64681;49.738;9.004;2024-02-21T07:35:26;100036.81;;;7.45;84.71
75996;BME280;64681;49.738;9.004;2024-02-21T07:37:52;100032.50;;;7.64;84.73
75996;BME280;64681;49.738;9.004;2024-02-21T07:40:18;100034.00;;;7.84;84.26
75996;BME280;64681;49.738;9.004;2024-02-21T07:42:44;100020.44;;;8.13;80.69
75996;BME280;64681;49.738;9.004;2024-02-21T07:45:10;100030.06;;;8.23;81.34
75996;BME280;64681;49.738;9.004;2024-02-21T07:47:36;100037.84;;;8.33;81.84
75996;BME280;64681;49.738;9.004;2024-02-21T07:50:03;100041.41;;;8.01;80.95
75996;BME280;64681;49.738;9.004;2024-02-21T07:52:28;100037.66;;;8.02;81.72
75996;BME280;64681;49.738;9.004;2024-02-21T07:54:54;100038.53;;;7.97;82.04
75996;BME280;64681;49.738;9.004;2024-02-21T07:57:19;100031.25;;;8.17;80.39
75996;BME280;64681;49.738;9.004;2024-02-21T07:59:45;100028.00;;;8.62;79.09
75996;BME280;64681;49.738;9.004;2024-02-21T08:02:13;100036.72;;;8.76;79.44
75996;BME280;64681;49.738;9.004;2024-02-21T08:04:39;100029.72;;;9.03;79.04
75996;BME280;64681;49.738;9.004;2024-02-21T08:07:04;100033.78;;;9.23;77.12
75996;BME280;64681;49.738;9.004;2024-02-21T08:09:30;100024.97;;;9.45;75.36
75996;BME280;64681;49.738;9.004;2024-02-21T08:11:56;100025.38;;;9.61;74.44
75996;BME280;64681;49.738;9.004;2024-02-21T08:14:22;100013.75;;;9.57;74.34
75996;BME280;64681;49.738;9.004;2024-02-21T08:16:48;100019.94;;;9.75;75.10
75996;BME280;64681;49.738;9.004;2024-02-21T08:19:13;100022.03;;;9.87;74.22
75996;BME280;64681;49.738;9.004;2024-02-21T08:21:39;100025.06;;;10.12;73.66
75996;BME280;64681;49.738;9.004;2024-02-21T08:24:05;100018.81;;;10.17;72.75
75996;BME280;64681;49.738;9.004;2024-02-21T08:26:30;100027.63;;;10.17;71.71
75996;BME280;64681;49.738;9.004;2024-02-21T08:28:57;100019.72;;;10.03;71.58
75996;BME280;64681;49.738;9.004;2024-02-21T08:31:26;100004.69;;;10.16;70.90
75996;BME280;64681;49.738;9.004;2024-02-21T08:34:00;100001.63;;;9.91;71.25
75996;BME280;64681;49.738;9.004;2024-02-21T08:36:32;100001.88;;;10.21;69.22
75996;BME280;64681;49.738;9.004;2024-02-21T08:38:57;99995.13;;;10.24;69.45
75996;BME280;64681;49.738;9.004;2024-02-21T08:41:23;99990.94;;;10.40;68.32
75996;BME280;64681;49.738;9.004;2024-02-21T08:43:52;100002.44;;;9.92;71.21
75996;BME280;64681;49.738;9.004;2024-02-21T08:46:25;99994.44;;;9.92;71.37
75996;BME280;64681;49.738;9.004;2024-02-21T08:48:52;99980.78;;;9.85;71.82
75996;BME280;64681;49.738;9.004;2024-02-21T08:51:18;99980.22;;;10.23;70.98
75996;BME280;64681;49.738;9.004;2024-02-21T08:53:45;99973.47;;;10.25;69.45
75996;BME280;64681;49.738;9.004;2024-02-21T08:56:11;99974.94;;;9.82;71.64
75996;BME280;64681;49.738;9.004;2024-02-21T08:58:36;99970.59;;;9.95;70.18
75996;BME280;64681;49.738;9.004;2024-02-21T09:01:03;99966.53;;;10.16;68.88
75996;BME280;64681;49.738;9.004;2024-02-21T09:03:33;99972.44;;;10.61;67.42
75996;BME280;64681;49.738;9.004;2024-02-21T09:06:00;99974.25;;;10.26;68.57
75996;BME280;64681;49.738;9.004;2024-02-21T09:08:26;99966.91;;;10.40;68.13
75996;BME280;64681;49.738;9.004;2024-02-21T09:10:52;99959.16;;;10.21;68.83
75996;BME280;64681;49.738;9.004;2024-02-21T09:13:17;99964.25;;;10.40;68.35
75996;BME280;64681;49.738;9.004;2024-02-21T09:15:43;99969.19;;;10.07;68.19
75996;BME280;64681;49.738;9.004;2024-02-21T09:18:09;99961.78;;;9.86;69.72
75996;BME280;64681;49.738;9.004;2024-02-21T09:20:34;99953.31;;;9.93;70.29
75996;BME280;64681;49.738;9.004;2024-02-21T09:23:00;99950.38;;;10.29;68.16
75996;BME280;64681;49.738;9.004;2024-02-21T09:25:25;99951.81;;;10.18;69.31
75996;BME280;64681;49.738;9.004;2024-02-21T09:27:51;99937.97;;;10.16;69.29
75996;BME280;64681;49.738;9.004;2024-02-21T09:30:17;99936.91;;;10.79;67.71
75996;BME280;64681;49.738;9.004;2024-02-21T09:32:44;99933.88;;;10.98;66.82
75996;BME280;64681;49.738;9.004;2024-02-21T09:35:09;99932.84;;;11.37;65.20
75996;BME280;64681;49.738;9.004;2024-02-21T09:37:35;99929.22;;;10.51;66.04
75996;BME280;64681;49.738;9.004;2024-02-21T09:40:01;99922.16;;;10.64;66.25
75996;BME280;64681;49.738;9.004;2024-02-21T09:42:37;99922.91;;;10.90;65.16
75996;BME280;64681;49.738;9.004;2024-02-21T09:45:28;99916.63;;;10.77;66.55
75996;BME280;64681;49.738;9.004;2024-02-21T09:48:19;99918.34;;;10.82;66.96
75996;BME280;64681;49.738;9.004;2024-02-21T09:50:47;99903.63;;;10.50;66.12
75996;BME280;64681;49.738;9.004;2024-02-21T09:53:15;99916.19;;;10.58;67.47
75996;BME280;64681;49.738;9.004;2024-02-21T09:55:43;99916.03;;;10.54;66.85
75996;BME280;64681;49.738;9.004;2024-02-21T09:58:09;99913.84;;;10.39;67.02
75996;BME280;64681;49.738;9.004;2024-02-21T10:00:35;99907.25;;;11.19;66.02
75996;BME280;64681;49.738;9.004;2024-02-21T10:03:01;99904.25;;;11.29;64.22
75996;BME280;64681;49.738;9.004;2024-02-21T10:05:33;99904.03;;;10.87;65.43
75996;BME280;64681;49.738;9.004;2024-02-21T10:07:59;99895.75;;;10.71;65.72
75996;BME280;64681;49.738;9.004;2024-02-21T10:10:24;99898.22;;;10.85;65.65
75996;BME280;64681;49.738;9.004;2024-02-21T10:12:50;99886.31;;;11.60;63.28
75996;BME280;64681;49.738;9.004;2024-02-21T10:15:23;99896.94;;;11.47;63.08
75996;BME280;64681;49.738;9.004;2024-02-21T10:17:59;99886.19;;;11.56;63.78
75996;BME280;64681;49.738;9.004;2024-02-21T10:20:25;99886.69;;;11.79;63.09
75996;BME280;64681;49.738;9.004;2024-02-21T10:23:01;99881.38;;;11.40;62.74
75996;BME280;64681;49.738;9.004;2024-02-21T10:25:34;99879.25;;;11.55;65.05
75996;BME280;64681;49.738;9.004;2024-02-21T10:27:59;99877.94;;;11.40;63.68
75996;BME280;64681;49.738;9.004;2024-02-21T10:30:24;99875.78;;;11.84;61.07
75996;BME280;64681;49.738;9.004;2024-02-21T10:32:53;99867.69;;;11.93;61.02
75996;BME280;64681;49.738;9.004;2024-02-21T10:35:26;99860.94;;;12.17;61.01
75996;BME280;64681;49.738;9.004;2024-02-21T10:37:53;99856.66;;;12.37;60.50
75996;BME280;64681;49.738;9.004;2024-02-21T10:40:26;99857.97;;;12.52;58.27
75996;BME280;64681;49.738;9.004;2024-02-21T10:42:57;99854.97;;;12.32;60.04
75996;BME280;64681;49.738;9.004;2024-02-21T10:45:30;99858.31;;;12.63;58.27
75996;BME280;64681;49.738;9.004;2024-02-21T10:48:06;99844.94;;;12.75;59.14
75996;BME280;64681;49.738;9.004;2024-02-21T10:58:50;99828.56;;;13.26;57.71
75996;BME280;64681;49.738;9.004;2024-02-21T11:01:17;99814.25;;;13.10;58.05
75996;BME280;64681;49.738;9.004;2024-02-21T11:03:49;99802.09;;;13.25;55.49
75996;BME280;64681;49.738;9.004;2024-02-21T11:06:17;99814.16;;;13.31;56.00
75996;BME280;64681;49.738;9.004;2024-02-21T11:08:43;99797.16;;;13.52;55.41
75996;BME280;64681;49.738;9.004;2024-02-21T11:11:12;99800.06;;;13.34;55.17
75996;BME280;64681;49.738;9.004;2024-02-21T11:13:43;99792.69;;;13.31;57.59
75996;BME280;64681;49.738;9.004;2024-02-21T11:16:21;99797.28;;;12.81;56.00
75996;BME280;64681;49.738;9.004;2024-02-21T11:18:47;99784.59;;;12.57;56.13
75996;BME280;64681;49.738;9.004;2024-02-21T11:21:13;99789.59;;;12.33;58.05
75996;BME280;64681;49.738;9.004;2024-02-21T11:23:38;99798.97;;;12.40;58.42
75996;BME280;64681;49.738;9.004;2024-02-21T11:26:06;99786.75;;;11.96;60.34
75996;BME280;64681;49.738;9.004;2024-02-21T11:28:32;99781.81;;;12.41;56.87
75996;BME280;64681;49.738;9.004;2024-02-21T11:31:14;99784.88;;;12.30;58.00
75996;BME280;64681;49.738;9.004;2024-02-21T11:33:43;99761.97;;;12.66;56.37
75996;BME280;64681;49.738;9.004;2024-02-21T11:36:09;99774.19;;;12.30;57.22
75996;BME280;64681;49.738;9.004;2024-02-21T11:38:34;99762.94;;;12.49;56.92
75996;BME280;64681;49.738;9.004;2024-02-21T11:41:00;99752.25;;;12.74;56.45
75996;BME280;64681;49.738;9.004;2024-02-21T11:43:25;99746.91;;;12.62;56.00
75996;BME280;64681;49.738;9.004;2024-02-21T11:45:59;99739.44;;;13.05;55.86
75996;BME280;64681;49.738;9.004;2024-02-21T11:48:25;99738.09;;;12.98;54.84
75996;BME280;64681;49.738;9.004;2024-02-21T11:50:57;99738.78;;;12.83;56.43
75996;BME280;64681;49.738;9.004;2024-02-21T11:53:23;99722.13;;;12.40;55.94
75996;BME280;64681;49.738;9.004;2024-02-21T11:55:49;99718.44;;;12.94;55.74
75996;BME280;64681;49.738;9.004;2024-02-21T11:58:15;99713.19;;;12.48;56.94
75996;BME280;64681;49.738;9.004;2024-02-21T12:00:41;99708.41;;;12.66;55.66
75996;BME280;64681;49.738;9.004;2024-02-21T12:03:07;99706.25;;;12.72;55.73
75996;BME280;64681;49.738;9.004;2024-02-21T12:05:33;99706.25;;;12.72;55.10
75996;BME280;64681;49.738;9.004;2024-02-21T12:07:59;99698.09;;;13.06;55.70
75996;BME280;64681;49.738;9.004;2024-02-21T12:10:26;99700.56;;;12.61;55.31
75996;BME280;64681;49.738;9.004;2024-02-21T12:12:52;99693.09;;;12.67;56.11
75996;BME280;64681;49.738;9.004;2024-02-21T12:15:20;99687.81;;;13.08;53.91
75996;BME280;64681;49.738;9.004;2024-02-21T12:17:45;99685.94;;;12.83;55.65
75996;BME280;64681;49.738;9.004;2024-02-21T12:20:11;99688.06;;;12.90;55.40
75996;BME280;64681;49.738;9.004;2024-02-21T12:22:41;99674.03;;;13.22;54.55
75996;BME280;64681;49.738;9.004;2024-02-21T12:25:17;99671.78;;;12.58;55.98
75996;BME280;64681;49.738;9.004;2024-02-21T12:28:05;99654.47;;;12.31;55.40
75996;BME280;64681;49.738;9.004;2024-02-21T12:30:31;99660.47;;;12.15;56.67
75996;BME280;64681;49.738;9.004;2024-02-21T12:32:58;99662.19;;;12.57;56.31
75996;BME280;64681;49.738;9.004;2024-02-21T12:35:26;99650.72;;;13.10;54.42
75996;BME280;64681;49.738;9.004;2024-02-21T12:37:52;99655.22;;;13.06;54.46
75996;BME280;64681;49.738;9.004;2024-02-21T12:40:17;99646.63;;;13.00;54.70
75996;BME280;64681;49.738;9.004;2024-02-21T12:42:43;99633.03;;;13.21;53.36
75996;BME280;64681;49.738;9.004;2024-02-21T12:45:09;99644.94;;;12.95;54.95
75996;BME280;64681;49.738;9.004;2024-02-21T12:47:34;99634.47;;;12.90;54.95
75996;BME280;64681;49.738;9.004;2024-02-21T12:50:00;99621.06;;;13.19;53.80
75996;BME280;64681;49.738;9.004;2024-02-21T12:52:25;99611.06;;;13.03;53.17
75996;BME280;64681;49.738;9.004;2024-02-21T12:54:51;99601.00;;;13.12;54.34
75996;BME280;64681;49.738;9.004;2024-02-21T12:57:17;99603.91;;;12.66;54.41
75996;BME280;64681;49.738;9.004;2024-02-21T12:59:42;99590.78;;;12.37;55.76
75996;BME280;64681;49.738;9.004;2024-02-21T13:02:07;99585.03;;;12.75;54.35
75996;BME280;64681;49.738;9.004;2024-02-21T13:04:33;99589.19;;;12.48;56.55
75996;BME280;64681;49.738;9.004;2024-02-21T13:06:59;99581.28;;;12.27;55.87